createdAt,value
2017-02-18T00:00:03.174Z,6.0
2017-02-18T00:05:03.104Z,6.0
2017-02-18T00:10:03.106Z,5.9
2017-02-18T00:15:03.125Z,6.0
2017-02-18T00:20:03.145Z,6.0
2017-02-18T00:25:03.124Z,6.0
2017-02-18T00:30:03.163Z,6.0
2017-02-18T00:35:03.179Z,6.0
2017-02-18T00:40:03.170Z,6.0
2017-02-18T00:45:03.184Z,6.0
2017-02-18T00:50:03.193Z,6.1
2017-02-18T00:55:03.213Z,6.0
2017-02-18T01:00:03.183Z,5.9
2017-02-18T01:05:02.484Z,6.0
2017-02-18T01:10:02.541Z,6.0
2017-02-18T01:15:02.486Z,6.0
2017-02-18T01:20:02.490Z,5.9
2017-02-18T01:25:02.470Z,5.9
2017-02-18T01:30:02.484Z,5.9
2017-02-18T01:35:02.492Z,5.9
2017-02-18T01:40:02.502Z,5.9
2017-02-18T01:45:02.481Z,5.9
2017-02-18T01:50:02.500Z,5.9
2017-02-18T01:55:02.483Z,5.9
2017-02-18T02:00:02.448Z,5.9
2017-02-18T02:05:02.431Z,5.9
2017-02-18T02:10:02.476Z,5.8
2017-02-18T02:15:02.395Z,5.8
2017-02-18T02:20:03.402Z,5.8
2017-02-18T02:25:02.376Z,5.9
2017-02-18T02:30:03.332Z,6.0
2017-02-18T02:35:03.333Z,6.1
2017-02-18T02:40:03.364Z,5.9
2017-02-18T02:45:03.321Z,6.0
2017-02-18T02:50:03.350Z,5.9
2017-02-18T02:55:10.317Z,6.0
2017-02-18T03:00:03.287Z,5.9
2017-02-18T03:05:03.298Z,5.9
2017-02-18T03:10:03.272Z,5.8
2017-02-18T03:15:03.230Z,5.9
2017-02-18T03:20:03.267Z,5.9
2017-02-18T03:25:03.230Z,5.9
2017-02-18T03:30:03.206Z,5.9
2017-02-18T03:35:03.207Z,5.8
2017-02-18T03:40:03.222Z,5.9
2017-02-18T03:45:03.232Z,5.8
2017-02-18T03:50:03.221Z,5.8
2017-02-18T03:55:03.212Z,5.9
2017-02-18T04:00:03.190Z,5.8
2017-02-18T04:05:03.236Z,5.5
2017-02-18T04:10:03.289Z,5.5
2017-02-18T04:15:03.325Z,5.5
2017-02-18T04:20:03.320Z,5.8
2017-02-18T04:25:03.312Z,5.8
2017-02-18T04:30:03.315Z,5.5
2017-02-18T04:35:03.362Z,5.3
2017-02-18T04:40:03.364Z,5.3
2017-02-18T04:45:03.379Z,5.3
2017-02-18T04:50:03.386Z,5.4
2017-02-18T04:55:03.406Z,5.4
2017-02-18T05:00:03.374Z,5.4
2017-02-18T05:05:03.435Z,5.3
2017-02-18T05:10:02.432Z,5.3
2017-02-18T05:15:03.401Z,5.0
2017-02-18T05:20:02.425Z,5.3
2017-02-18T05:25:03.554Z,5.0
2017-02-18T05:30:02.891Z,5.0
2017-02-18T05:35:02.885Z,5.0
2017-02-18T05:40:03.028Z,5.0
2017-02-18T05:45:03.118Z,4.8
2017-02-18T05:50:03.147Z,4.5
2017-02-18T05:55:03.127Z,4.8
2017-02-18T06:00:03.141Z,4.5
2017-02-18T06:05:03.131Z,4.5
2017-02-18T06:10:03.243Z,4.5
2017-02-18T06:15:03.216Z,5.0
2017-02-18T06:20:03.205Z,5.0
2017-02-18T06:25:03.295Z,5.0
2017-02-18T06:30:03.335Z,5.0
2017-02-18T06:35:03.335Z,5.3
2017-02-18T06:40:03.439Z,5.4
2017-02-18T06:45:02.435Z,5.4
2017-02-18T06:50:02.489Z,5.3
2017-02-18T06:55:02.461Z,5.3
2017-02-18T07:00:02.472Z,5.3
2017-02-18T07:05:02.497Z,5.5
2017-02-18T07:10:02.574Z,5.4
2017-02-18T07:15:02.565Z,5.3
2017-02-18T07:20:02.579Z,5.5
2017-02-18T07:25:02.615Z,5.4
2017-02-18T07:30:03.348Z,5.3
2017-02-18T07:35:02.454Z,5.5
2017-02-18T07:40:03.272Z,5.4
2017-02-18T07:45:03.231Z,5.4
2017-02-18T07:50:03.005Z,5.3
2017-02-18T07:55:02.721Z,5.4
2017-02-18T08:00:02.725Z,5.5
2017-02-18T08:05:02.606Z,5.4
2017-02-18T08:10:02.520Z,5.5
2017-02-18T08:15:03.365Z,5.8
2017-02-18T08:20:03.158Z,5.8
2017-02-18T08:25:03.101Z,5.9
2017-02-18T08:30:03.168Z,5.9
2017-02-18T08:35:03.199Z,6.0
2017-02-18T08:40:03.114Z,6.1
2017-02-18T08:45:02.846Z,6.4
2017-02-18T10:10:02.773Z,9.1
2017-02-18T10:15:02.937Z,8.5
2017-02-18T10:20:03.070Z,10.1
2017-02-18T10:25:02.580Z,10.3
2017-02-18T10:30:03.202Z,10.1
2017-02-18T10:35:02.652Z,9.8
2017-02-18T10:40:03.138Z,10.8
2017-02-18T10:45:03.449Z,10.0
2017-02-18T10:50:02.592Z,10.5
2017-02-18T10:55:02.746Z,11.3
2017-02-18T11:00:03.262Z,10.8
2017-02-18T11:05:03.145Z,11.1
2017-02-18T11:10:03.324Z,10.8
2017-02-18T11:15:03.233Z,10.1
2017-02-18T11:20:02.642Z,11.3
2017-02-18T11:25:03.019Z,12.0
2017-02-18T11:30:02.775Z,11.0
2017-02-18T11:35:03.157Z,10.6
2017-02-18T11:40:03.004Z,11.6
2017-02-18T11:45:03.220Z,11.3
2017-02-18T11:50:03.238Z,11.6
2017-02-18T11:55:02.606Z,12.8
2017-02-18T12:00:02.864Z,11.8
2017-02-18T12:05:03.051Z,11.6
2017-02-18T12:10:03.166Z,11.6
2017-02-18T12:15:02.398Z,12.1
2017-02-18T12:20:03.197Z,11.6
2017-02-18T12:25:02.715Z,12.0
2017-02-18T12:30:02.593Z,11.8
2017-02-18T12:35:03.177Z,11.1
2017-02-18T12:40:02.768Z,11.6
2017-02-18T12:45:03.158Z,12.1
2017-02-18T12:50:03.389Z,11.8
2017-02-18T12:55:03.346Z,11.8
2017-02-18T13:00:03.251Z,11.0
2017-02-18T13:05:03.062Z,10.5
2017-02-18T13:10:02.547Z,12.5
2017-02-18T13:15:03.245Z,10.3
2017-02-18T13:20:03.185Z,10.6
2017-02-18T13:25:03.145Z,10.3
2017-02-18T13:30:02.855Z,10.1
2017-02-18T13:35:02.620Z,10.6
2017-02-18T13:40:02.688Z,10.5
2017-02-18T13:45:02.477Z,10.5
2017-02-18T13:50:03.223Z,10.6
2017-02-18T13:55:03.361Z,11.1
2017-02-18T14:00:03.366Z,11.0
2017-02-18T14:05:03.098Z,10.3
2017-02-18T14:10:02.953Z,10.1
2017-02-18T14:15:02.865Z,10.0
2017-02-18T14:20:02.896Z,9.6
2017-02-18T14:25:02.918Z,10.0
2017-02-18T14:30:02.851Z,10.0
2017-02-18T14:35:02.683Z,9.8
2017-02-18T14:40:02.512Z,9.6
2017-02-18T14:45:02.713Z,9.6
2017-02-18T14:50:03.311Z,9.8
2017-02-18T14:55:03.124Z,9.6
2017-02-18T15:00:03.041Z,9.5
2017-02-18T15:05:02.776Z,9.3
2017-02-18T15:10:02.651Z,9.5
2017-02-18T15:15:02.532Z,9.5
2017-02-18T15:20:03.406Z,9.5
2017-02-18T15:25:02.668Z,9.5
2017-02-18T15:30:03.107Z,9.3
2017-02-18T15:35:03.166Z,9.3
2017-02-18T15:40:03.070Z,9.1
2017-02-18T15:45:02.938Z,9.0
2017-02-18T15:50:03.257Z,8.6
2017-02-18T15:55:03.307Z,8.6
2017-02-18T16:00:03.038Z,8.6
2017-02-18T16:05:03.159Z,8.6
2017-02-18T16:10:03.143Z,8.5
2017-02-18T16:15:03.312Z,8.6
2017-02-18T16:20:03.159Z,8.3
2017-02-18T16:25:03.014Z,8.1
2017-02-18T16:30:03.133Z,8.1
2017-02-18T16:35:02.946Z,7.9
2017-02-18T16:40:03.173Z,7.9
2017-02-18T16:45:03.276Z,7.9
2017-02-18T16:50:03.179Z,7.6
2017-02-18T16:55:03.383Z,7.6
2017-02-18T17:00:03.313Z,7.5
2017-02-18T17:05:03.238Z,7.5
2017-02-18T17:10:03.227Z,7.4
2017-02-18T17:15:03.223Z,7.0
2017-02-18T17:20:03.198Z,7.0
2017-02-18T17:25:03.432Z,6.9
2017-02-18T17:30:02.425Z,6.5
2017-02-18T17:35:03.132Z,6.4
2017-02-18T17:40:03.030Z,6.1
2017-02-18T17:45:03.136Z,6.0
2017-02-18T17:50:02.968Z,5.9
2017-02-18T17:55:02.873Z,5.5
2017-02-18T18:00:02.714Z,5.0
2017-02-18T18:05:02.736Z,5.0
2017-02-18T18:10:02.604Z,5.3
2017-02-18T18:15:02.398Z,5.0
2017-02-18T18:20:03.499Z,4.8
2017-02-18T18:25:03.327Z,4.8
2017-02-18T18:30:03.111Z,4.5
2017-02-18T18:35:02.962Z,4.5
2017-02-18T18:40:02.763Z,4.3
2017-02-18T18:45:02.658Z,4.3
2017-02-18T18:50:02.558Z,4.5
2017-02-18T18:55:03.406Z,4.3
2017-02-18T19:00:03.181Z,4.0
2017-02-18T19:05:03.086Z,4.0
2017-02-18T19:10:02.988Z,4.0
2017-02-18T19:15:02.959Z,3.7
2017-02-18T19:20:02.972Z,3.7
2017-02-18T19:25:02.899Z,3.7
2017-02-18T19:30:02.663Z,3.7
2017-02-18T19:35:02.576Z,3.5
2017-02-18T19:40:02.676Z,3.2
2017-02-18T19:45:02.757Z,3.2
2017-02-18T19:50:02.751Z,3.2
2017-02-18T19:55:02.647Z,3.2
2017-02-18T20:00:02.626Z,3.2
2017-02-18T20:05:02.797Z,3.5
2017-02-18T20:10:02.691Z,3.7
2017-02-18T20:15:02.839Z,3.7
2017-02-18T20:20:02.823Z,3.7
2017-02-18T20:25:02.680Z,3.5
2017-02-18T20:30:02.543Z,3.5
2017-02-18T20:35:03.194Z,3.7
2017-02-18T20:40:02.993Z,3.7
2017-02-18T20:45:02.797Z,3.7
2017-02-18T20:50:02.673Z,4.0
2017-02-18T20:55:02.726Z,3.7
2017-02-18T21:00:02.892Z,4.0
2017-02-18T21:05:02.803Z,4.0
2017-02-18T21:10:02.731Z,4.5
2017-02-18T21:15:02.591Z,4.5
2017-02-18T21:20:02.674Z,4.3
2017-02-18T21:25:02.515Z,4.3
2017-02-18T21:30:03.217Z,4.3
2017-02-18T21:35:02.943Z,4.3
2017-02-18T21:40:02.802Z,4.0
2017-02-18T21:45:02.554Z,4.0
2017-02-18T21:50:02.536Z,4.0
2017-02-18T21:55:03.331Z,3.7
2017-02-18T22:00:03.383Z,3.7
2017-02-18T22:05:02.575Z,3.7
2017-02-18T22:10:02.367Z,3.7
2017-02-18T22:15:03.044Z,3.5
2017-02-18T22:20:02.812Z,3.5
2017-02-18T22:25:02.679Z,3.2
2017-02-18T22:30:03.109Z,3.2
2017-02-18T22:35:02.743Z,3.2
2017-02-18T22:40:02.527Z,3.2
2017-02-18T22:45:03.364Z,3.2
2017-02-18T22:50:03.180Z,3.0
2017-02-18T22:55:02.903Z,2.7
2017-02-18T23:00:02.748Z,2.7
2017-02-18T23:05:02.476Z,2.9
2017-02-18T23:10:03.308Z,3.0
2017-02-18T23:15:03.092Z,3.2
2017-02-18T23:20:03.215Z,3.2
2017-02-18T23:25:03.272Z,3.0
2017-02-18T23:30:03.114Z,3.0
2017-02-18T23:35:03.317Z,3.0
2017-02-18T23:40:03.198Z,3.0
2017-02-18T23:45:03.099Z,2.9
2017-02-18T23:50:03.015Z,2.9
2017-02-18T23:55:02.887Z,3.0
